Swift Arrow — WAFK — position and weather

sailwx.info

Track history (hours):
 
Tides and Currents Weather Stations Pressure Air Temp Water Temp Dewpoint Dewpoint Depression Visibility Wind Speed Wind Dir Waves Ship Positions

Swift Arrow

Owner: ARROW LAUNCH SERVICE INC, Port Angeles, WA. More information available from US FCC via Universal Licensing System and Coast Guard Vessel Documentation Center.

Last reported at 2015-Mar-27 14:33 UTC. Time now 2015-Mar-28 17:50 UTC.
Position N 48°07' W 123°26'.

Type: Port tender. MMSI: 369021000.

Date/timePositionNaut miles runAvg speedWind from/ knotsBaromVisibWave heightAir tempDewpointWater temp
2015-Mar-27 14:33N 48°07' W 123°26'1 0.1
2015-Mar-27 01:33N 48°08' W 123°25'4 4.5
2015-Mar-27 00:33N 48°09' W 123°18'6 6.3
2015-Mar-26 23:32N 48°11' W 123°09'5 4.9
2015-Mar-26 22:30N 48°10' W 123°02'6 5.1
2015-Mar-26 21:20N 48°09' W 122°53'12 6.9
2015-Mar-26 19:33N 48°03' W 122°37'8 8.1
2015-Mar-26 18:33N 47°56' W 122°30'6 6.3
2015-Mar-26 17:33N 47°55' W 122°21'5 5.1
2015-Mar-26 16:33N 47°58' W 122°16'2 2.0
2015-Mar-26 15:33N 47°59' W 122°13'1 0.5
2015-Mar-26 14:33N 47°60' W 122°13'0 0.0
2015-Mar-26 00:33N 47°60' W 122°14'1212.0
2015-Mar-25 23:33N 47°50' W 122°23'1211.7
2015-Mar-25 22:32N 47°38' W 122°24'4 2.0
2015-Mar-25 20:33N 47°34' W 122°21'2 2.0
2015-Mar-25 19:33N 47°36' W 122°23'2 1.5
2015-Mar-25 18:33N 47°36' W 122°20'1 1.4
2015-Mar-25 17:33N 47°36' W 122°22'2 0.1
2015-Mar-24 18:33N 47°34' W 122°21'2 1.9
2015-Mar-24 17:33N 47°36' W 122°23'0 0.1
2015-Mar-24 16:31N 47°36' W 122°22'2 2.1
2015-Mar-24 15:33N 47°34' W 122°21'0 0.0
2015-Mar-24 14:33N 47°34' W 122°21'2 1.7
2015-Mar-24 13:33N 47°36' W 122°22'1 0.0
2015-Mar-22 19:33N 47°35' W 122°22'1 0.8
2015-Mar-22 18:33N 47°36' W 122°22'2 1.6
2015-Mar-22 17:33N 47°37' W 122°23'2 2.4
2015-Mar-22 16:33N 47°35' W 122°22'1 0.2
2015-Mar-22 12:24N 47°34' W 122°21'3 3.5
2015-Mar-22 11:33N 47°37' W 122°22'3 0.4
2015-Mar-22 04:31N 47°34' W 122°21'3 3.3
2015-Mar-22 03:34N 47°37' W 122°23'3 2.7
2015-Mar-22 02:34N 47°34' W 122°21'0 0.0
2015-Mar-21 03:33N 47°34' W 122°21'3 3.4
2015-Mar-21 02:33N 47°37' W 122°22'1 0.3
2015-Mar-21 00:07N 47°38' W 122°23'4 7.2
2015-Mar-20 23:33N 47°34' W 122°21'0 0.0
2015-Mar-20 17:32N 47°34' W 122°21'3 3.0
2015-Mar-20 16:33N 47°35' W 122°25'3 3.1
2015-Mar-20 15:33N 47°36' W 122°20'1 0.1
2015-Mar-20 03:32N 47°36' W 122°21'4 4.5
2015-Mar-20 02:34N 47°34' W 122°27'4 2.9
2015-Mar-20 01:14N 47°35' W 122°22'812.4
2015-Mar-20 00:33N 47°27' W 122°23'1211.8
2015-Mar-19 23:33N 47°15' W 122°26'0 0.0
2015-Mar-19 00:31N 47°15' W 122°26'1 1.3
2015-Mar-18 23:33N 47°16' W 122°26'  
Track history (hours):
 
Tides and Currents Weather Stations Pressure Air Temp Water Temp Dewpoint Dewpoint Depression Visibility Wind Speed Wind Dir Waves Ship Positions

Swift Arrow

Owner: ARROW LAUNCH SERVICE INC, Port Angeles, WA. More information available from US FCC via Universal Licensing System and Coast Guard Vessel Documentation Center.

Last reported at 2015-Mar-27 14:33 UTC. Time now 2015-Mar-28 17:50 UTC.
Position N 48°07' W 123°26'.

Type: Port tender. MMSI: 369021000.

Date/timePositionNaut miles runAvg speedWind from/ knotsBaromVisibWave heightAir tempDewpointWater temp
2015-Mar-27 14:33N 48°07' W 123°26'1 0.1
2015-Mar-27 01:33N 48°08' W 123°25'4 4.5
2015-Mar-27 00:33N 48°09' W 123°18'6 6.3
2015-Mar-26 23:32N 48°11' W 123°09'5 4.9
2015-Mar-26 22:30N 48°10' W 123°02'6 5.1
2015-Mar-26 21:20N 48°09' W 122°53'12 6.9
2015-Mar-26 19:33N 48°03' W 122°37'8 8.1
2015-Mar-26 18:33N 47°56' W 122°30'6 6.3
2015-Mar-26 17:33N 47°55' W 122°21'5 5.1
2015-Mar-26 16:33N 47°58' W 122°16'2 2.0
2015-Mar-26 15:33N 47°59' W 122°13'1 0.5
2015-Mar-26 14:33N 47°60' W 122°13'0 0.0
2015-Mar-26 00:33N 47°60' W 122°14'1212.0
2015-Mar-25 23:33N 47°50' W 122°23'1211.7
2015-Mar-25 22:32N 47°38' W 122°24'4 2.0
2015-Mar-25 20:33N 47°34' W 122°21'2 2.0
2015-Mar-25 19:33N 47°36' W 122°23'2 1.5
2015-Mar-25 18:33N 47°36' W 122°20'1 1.4
2015-Mar-25 17:33N 47°36' W 122°22'2 0.1
2015-Mar-24 18:33N 47°34' W 122°21'2 1.9
2015-Mar-24 17:33N 47°36' W 122°23'0 0.1
2015-Mar-24 16:31N 47°36' W 122°22'2 2.1
2015-Mar-24 15:33N 47°34' W 122°21'0 0.0
2015-Mar-24 14:33N 47°34' W 122°21'2 1.7
2015-Mar-24 13:33N 47°36' W 122°22'1 0.0
2015-Mar-22 19:33N 47°35' W 122°22'1 0.8
2015-Mar-22 18:33N 47°36' W 122°22'2 1.6
2015-Mar-22 17:33N 47°37' W 122°23'2 2.4
2015-Mar-22 16:33N 47°35' W 122°22'1 0.2
2015-Mar-22 12:24N 47°34' W 122°21'3 3.5
2015-Mar-22 11:33N 47°37' W 122°22'3 0.4
2015-Mar-22 04:31N 47°34' W 122°21'3 3.3
2015-Mar-22 03:34N 47°37' W 122°23'3 2.7
2015-Mar-22 02:34N 47°34' W 122°21'0 0.0
2015-Mar-21 03:33N 47°34' W 122°21'3 3.4
2015-Mar-21 02:33N 47°37' W 122°22'1 0.3
2015-Mar-21 00:07N 47°38' W 122°23'4 7.2
2015-Mar-20 23:33N 47°34' W 122°21'0 0.0
2015-Mar-20 17:32N 47°34' W 122°21'3 3.0
2015-Mar-20 16:33N 47°35' W 122°25'3 3.1
2015-Mar-20 15:33N 47°36' W 122°20'1 0.1
2015-Mar-20 03:32N 47°36' W 122°21'4 4.5
2015-Mar-20 02:34N 47°34' W 122°27'4 2.9
2015-Mar-20 01:14N 47°35' W 122°22'812.4
2015-Mar-20 00:33N 47°27' W 122°23'1211.8
2015-Mar-19 23:33N 47°15' W 122°26'0 0.0
2015-Mar-19 00:31N 47°15' W 122°26'1 1.3
2015-Mar-18 23:33N 47°16' W 122°26'  

Dump ship's entire track history